sensor_id;sensor_type;location;lat;lon;timestamp;P1;durP1;ratioP1;P2;durP2;ratioP2
57947;SDS011;43754;56.992;24.292;2022-09-30T00:01:12;15.73;;;12.30;;
57947;SDS011;43754;56.992;24.292;2022-09-30T00:04:03;13.65;;;10.57;;
57947;SDS011;43754;56.992;24.292;2022-09-30T00:06:36;13.95;;;9.70;;
57947;SDS011;43754;56.992;24.292;2022-09-30T00:09:08;12.02;;;9.73;;
57947;SDS011;43754;56.992;24.292;2022-09-30T00:11:44;18.48;;;13.60;;
57947;SDS011;43754;56.992;24.292;2022-09-30T00:14:18;13.68;;;10.82;;
57947;SDS011;43754;56.992;24.292;2022-09-30T00:16:52;19.50;;;12.55;;
57947;SDS011;43754;56.992;24.292;2022-09-30T00:19:24;11.23;;;9.20;;
57947;SDS011;43754;56.992;24.292;2022-09-30T00:21:56;14.02;;;9.27;;
57947;SDS011;43754;56.992;24.292;2022-09-30T00:24:28;18.75;;;10.88;;
57947;SDS011;43754;56.992;24.292;2022-09-30T00:27:01;14.27;;;9.82;;
57947;SDS011;43754;56.992;24.292;2022-09-30T00:29:33;12.50;;;9.25;;
57947;SDS011;43754;56.992;24.292;2022-09-30T00:32:05;20.83;;;14.80;;
57947;SDS011;43754;56.992;24.292;2022-09-30T00:34:37;18.77;;;10.95;;
57947;SDS011;43754;56.992;24.292;2022-09-30T00:37:09;11.25;;;9.40;;
57947;SDS011;43754;56.992;24.292;2022-09-30T00:39:45;12.15;;;9.40;;
57947;SDS011;43754;56.992;24.292;2022-09-30T00:42:19;16.08;;;9.77;;
57947;SDS011;43754;56.992;24.292;2022-09-30T00:44:52;10.65;;;8.68;;
57947;SDS011;43754;56.992;24.292;2022-09-30T00:47:33;12.60;;;10.88;;
57947;SDS011;43754;56.992;24.292;2022-09-30T00:50:20;14.73;;;10.30;;
57947;SDS011;43754;56.992;24.292;2022-09-30T00:52:59;10.98;;;8.98;;
57947;SDS011;43754;56.992;24.292;2022-09-30T00:55:41;15.38;;;9.55;;
57947;SDS011;43754;56.992;24.292;2022-09-30T01:01:23;11.27;;;9.63;;
57947;SDS011;43754;56.992;24.292;2022-09-30T01:03:56;13.30;;;8.75;;
57947;SDS011;43754;56.992;24.292;2022-09-30T01:06:30;10.43;;;8.80;;
57947;SDS011;43754;56.992;24.292;2022-09-30T01:09:03;15.63;;;10.55;;
57947;SDS011;43754;56.992;24.292;2022-09-30T01:11:35;12.38;;;9.05;;
57947;SDS011;43754;56.992;24.292;2022-09-30T01:14:08;11.50;;;8.65;;
57947;SDS011;43754;56.992;24.292;2022-09-30T01:16:51;12.88;;;9.13;;
57947;SDS011;43754;56.992;24.292;2022-09-30T01:19:43;12.32;;;9.05;;
57947;SDS011;43754;56.992;24.292;2022-09-30T01:22:38;16.98;;;9.57;;
57947;SDS011;43754;56.992;24.292;2022-09-30T01:25:23;20.08;;;13.48;;
57947;SDS011;43754;56.992;24.292;2022-09-30T01:28:30;15.02;;;8.88;;
57947;SDS011;43754;56.992;24.292;2022-09-30T01:34:34;17.85;;;11.20;;
57947;SDS011;43754;56.992;24.292;2022-09-30T01:37:18;14.50;;;10.35;;
57947;SDS011;43754;56.992;24.292;2022-09-30T01:39:56;18.63;;;10.55;;
57947;SDS011;43754;56.992;24.292;2022-09-30T01:42:37;16.05;;;10.38;;
57947;SDS011;43754;56.992;24.292;2022-09-30T01:45:19;16.20;;;10.35;;
57947;SDS011;43754;56.992;24.292;2022-09-30T01:48:04;10.57;;;8.10;;
57947;SDS011;43754;56.992;24.292;2022-09-30T01:50:44;15.32;;;9.60;;
57947;SDS011;43754;56.992;24.292;2022-09-30T01:53:22;19.05;;;10.23;;
57947;SDS011;43754;56.992;24.292;2022-09-30T01:56:02;9.18;;;7.00;;
57947;SDS011;43754;56.992;24.292;2022-09-30T01:58:40;12.65;;;8.52;;
57947;SDS011;43754;56.992;24.292;2022-09-30T02:01:17;15.30;;;9.48;;
57947;SDS011;43754;56.992;24.292;2022-09-30T02:03:55;18.02;;;11.15;;
57947;SDS011;43754;56.992;24.292;2022-09-30T02:06:34;15.32;;;11.05;;
57947;SDS011;43754;56.992;24.292;2022-09-30T02:09:11;13.98;;;9.52;;
57947;SDS011;43754;56.992;24.292;2022-09-30T02:11:45;15.18;;;9.93;;
57947;SDS011;43754;56.992;24.292;2022-09-30T02:14:18;14.85;;;9.52;;
57947;SDS011;43754;56.992;24.292;2022-09-30T02:16:56;15.52;;;10.82;;
57947;SDS011;43754;56.992;24.292;2022-09-30T02:19:34;14.88;;;9.93;;
57947;SDS011;43754;56.992;24.292;2022-09-30T02:22:12;20.17;;;11.80;;
57947;SDS011;43754;56.992;24.292;2022-09-30T02:24:49;16.60;;;10.25;;
57947;SDS011;43754;56.992;24.292;2022-09-30T02:27:26;28.85;;;15.27;;
57947;SDS011;43754;56.992;24.292;2022-09-30T02:30:02;23.33;;;13.00;;
57947;SDS011;43754;56.992;24.292;2022-09-30T02:32:35;27.35;;;15.48;;
57947;SDS011;43754;56.992;24.292;2022-09-30T02:35:12;16.17;;;11.10;;
57947;SDS011;43754;56.992;24.292;2022-09-30T02:37:52;16.97;;;9.67;;
57947;SDS011;43754;56.992;24.292;2022-09-30T02:40:29;21.85;;;13.38;;
57947;SDS011;43754;56.992;24.292;2022-09-30T02:43:06;24.60;;;15.10;;
57947;SDS011;43754;56.992;24.292;2022-09-30T02:45:42;23.08;;;14.50;;
57947;SDS011;43754;56.992;24.292;2022-09-30T02:48:23;17.38;;;12.25;;
57947;SDS011;43754;56.992;24.292;2022-09-30T02:51:01;26.90;;;14.98;;
57947;SDS011;43754;56.992;24.292;2022-09-30T02:53:40;26.10;;;13.75;;
57947;SDS011;43754;56.992;24.292;2022-09-30T02:56:18;21.10;;;11.90;;
57947;SDS011;43754;56.992;24.292;2022-09-30T02:58:55;34.30;;;14.43;;
57947;SDS011;43754;56.992;24.292;2022-09-30T03:01:28;25.30;;;10.80;;
57947;SDS011;43754;56.992;24.292;2022-09-30T03:04:01;34.90;;;14.48;;
57947;SDS011;43754;56.992;24.292;2022-09-30T03:06:36;41.40;;;14.30;;
57947;SDS011;43754;56.992;24.292;2022-09-30T03:09:10;17.52;;;12.52;;
57947;SDS011;43754;56.992;24.292;2022-09-30T03:11:43;18.35;;;12.90;;
57947;SDS011;43754;56.992;24.292;2022-09-30T03:14:30;27.45;;;12.65;;
57947;SDS011;43754;56.992;24.292;2022-09-30T03:20:25;44.92;;;13.90;;
57947;SDS011;43754;56.992;24.292;2022-09-30T03:23:15;104.78;;;19.35;;
57947;SDS011;43754;56.992;24.292;2022-09-30T03:26:02;29.00;;;12.45;;
57947;SDS011;43754;56.992;24.292;2022-09-30T03:28:50;16.45;;;10.20;;
57947;SDS011;43754;56.992;24.292;2022-09-30T03:31:33;32.42;;;15.00;;
57947;SDS011;43754;56.992;24.292;2022-09-30T03:34:13;21.42;;;14.60;;
57947;SDS011;43754;56.992;24.292;2022-09-30T03:36:56;16.35;;;12.43;;
57947;SDS011;43754;56.992;24.292;2022-09-30T03:39:42;20.27;;;13.60;;
57947;SDS011;43754;56.992;24.292;2022-09-30T03:42:26;21.35;;;13.68;;
57947;SDS011;43754;56.992;24.292;2022-09-30T03:45:03;16.05;;;12.48;;
57947;SDS011;43754;56.992;24.292;2022-09-30T03:47:43;18.77;;;13.57;;
57947;SDS011;43754;56.992;24.292;2022-09-30T03:50:18;13.65;;;10.00;;
57947;SDS011;43754;56.992;24.292;2022-09-30T03:52:52;13.65;;;10.57;;
57947;SDS011;43754;56.992;24.292;2022-09-30T03:55:24;13.63;;;9.95;;
57947;SDS011;43754;56.992;24.292;2022-09-30T03:57:58;16.48;;;12.27;;
57947;SDS011;43754;56.992;24.292;2022-09-30T04:00:30;11.52;;;9.32;;
57947;SDS011;43754;56.992;24.292;2022-09-30T04:03:03;19.63;;;12.40;;
57947;SDS011;43754;56.992;24.292;2022-09-30T04:05:35;14.85;;;11.75;;
57947;SDS011;43754;56.992;24.292;2022-09-30T04:08:07;15.70;;;11.20;;
57947;SDS011;43754;56.992;24.292;2022-09-30T04:10:39;14.60;;;11.00;;
57947;SDS011;43754;56.992;24.292;2022-09-30T04:13:14;11.93;;;8.95;;
57947;SDS011;43754;56.992;24.292;2022-09-30T04:15:51;11.88;;;8.50;;
57947;SDS011;43754;56.992;24.292;2022-09-30T04:18:24;18.00;;;11.85;;
57947;SDS011;43754;56.992;24.292;2022-09-30T04:20:56;13.43;;;10.88;;
57947;SDS011;43754;56.992;24.292;2022-09-30T04:23:29;10.00;;;7.88;;
57947;SDS011;43754;56.992;24.292;2022-09-30T04:26:01;12.27;;;9.38;;
57947;SDS011;43754;56.992;24.292;2022-09-30T04:28:35;16.52;;;11.73;;
57947;SDS011;43754;56.992;24.292;2022-09-30T04:31:09;11.88;;;9.55;;
57947;SDS011;43754;56.992;24.292;2022-09-30T04:33:42;14.05;;;9.65;;
57947;SDS011;43754;56.992;24.292;2022-09-30T04:36:15;12.55;;;8.68;;
57947;SDS011;43754;56.992;24.292;2022-09-30T04:38:48;11.65;;;7.28;;
57947;SDS011;43754;56.992;24.292;2022-09-30T04:41:20;16.25;;;10.27;;
57947;SDS011;43754;56.992;24.292;2022-09-30T04:43:53;10.30;;;8.20;;
57947;SDS011;43754;56.992;24.292;2022-09-30T04:46:27;13.57;;;9.88;;
57947;SDS011;43754;56.992;24.292;2022-09-30T04:48:59;9.02;;;7.60;;
57947;SDS011;43754;56.992;24.292;2022-09-30T04:51:31;11.98;;;7.93;;
57947;SDS011;43754;56.992;24.292;2022-09-30T04:54:03;13.20;;;9.07;;
57947;SDS011;43754;56.992;24.292;2022-09-30T04:56:35;11.65;;;8.55;;
57947;SDS011;43754;56.992;24.292;2022-09-30T04:59:09;7.95;;;6.68;;
57947;SDS011;43754;56.992;24.292;2022-09-30T05:01:41;9.48;;;6.35;;
57947;SDS011;43754;56.992;24.292;2022-09-30T05:04:15;10.63;;;7.78;;
57947;SDS011;43754;56.992;24.292;2022-09-30T05:06:47;9.23;;;6.40;;
57947;SDS011;43754;56.992;24.292;2022-09-30T05:09:20;8.68;;;6.85;;
57947;SDS011;43754;56.992;24.292;2022-09-30T05:11:52;10.82;;;7.30;;
57947;SDS011;43754;56.992;24.292;2022-09-30T05:14:25;8.82;;;6.47;;
57947;SDS011;43754;56.992;24.292;2022-09-30T05:16:57;8.27;;;6.10;;
57947;SDS011;43754;56.992;24.292;2022-09-30T05:19:29;10.35;;;7.05;;
57947;SDS011;43754;56.992;24.292;2022-09-30T05:22:01;9.95;;;6.88;;
57947;SDS011;43754;56.992;24.292;2022-09-30T05:24:33;9.63;;;6.57;;
57947;SDS011;43754;56.992;24.292;2022-09-30T05:27:05;8.60;;;6.63;;
57947;SDS011;43754;56.992;24.292;2022-09-30T05:29:39;9.70;;;7.03;;
57947;SDS011;43754;56.992;24.292;2022-09-30T05:32:11;9.35;;;6.85;;
57947;SDS011;43754;56.992;24.292;2022-09-30T05:34:43;12.32;;;7.40;;
57947;SDS011;43754;56.992;24.292;2022-09-30T05:37:15;11.82;;;8.18;;
57947;SDS011;43754;56.992;24.292;2022-09-30T05:39:47;11.18;;;9.00;;
57947;SDS011;43754;56.992;24.292;2022-09-30T05:42:19;12.35;;;8.00;;
57947;SDS011;43754;56.992;24.292;2022-09-30T05:44:52;9.02;;;7.55;;
57947;SDS011;43754;56.992;24.292;2022-09-30T05:47:25;9.90;;;7.93;;
57947;SDS011;43754;56.992;24.292;2022-09-30T05:49:57;9.20;;;6.75;;
57947;SDS011;43754;56.992;24.292;2022-09-30T05:52:29;13.93;;;8.45;;
57947;SDS011;43754;56.992;24.292;2022-09-30T05:55:01;8.88;;;7.72;;
57947;SDS011;43754;56.992;24.292;2022-09-30T05:57:34;8.20;;;7.40;;
57947;SDS011;43754;56.992;24.292;2022-09-30T06:00:08;8.50;;;7.47;;
57947;SDS011;43754;56.992;24.292;2022-09-30T06:02:44;7.03;;;6.22;;
57947;SDS011;43754;56.992;24.292;2022-09-30T06:05:16;10.45;;;7.57;;
57947;SDS011;43754;56.992;24.292;2022-09-30T06:07:49;8.75;;;7.28;;
57947;SDS011;43754;56.992;24.292;2022-09-30T06:10:21;8.25;;;6.68;;
57947;SDS011;43754;56.992;24.292;2022-09-30T06:12:54;8.88;;;7.07;;
57947;SDS011;43754;56.992;24.292;2022-09-30T06:15:27;7.85;;;6.82;;
57947;SDS011;43754;56.992;24.292;2022-09-30T06:18:00;9.00;;;7.55;;
57947;SDS011;43754;56.992;24.292;2022-09-30T06:20:32;7.72;;;7.00;;
57947;SDS011;43754;56.992;24.292;2022-09-30T06:23:04;9.63;;;6.97;;
57947;SDS011;43754;56.992;24.292;2022-09-30T06:25:36;8.32;;;7.53;;
57947;SDS011;43754;56.992;24.292;2022-09-30T06:28:08;8.80;;;7.25;;
57947;SDS011;43754;56.992;24.292;2022-09-30T06:30:42;9.05;;;7.65;;
57947;SDS011;43754;56.992;24.292;2022-09-30T06:33:14;9.52;;;7.95;;
57947;SDS011;43754;56.992;24.292;2022-09-30T06:35:46;9.30;;;7.45;;
57947;SDS011;43754;56.992;24.292;2022-09-30T06:38:18;14.52;;;9.13;;
57947;SDS011;43754;56.992;24.292;2022-09-30T06:40:52;9.88;;;8.30;;
57947;SDS011;43754;56.992;24.292;2022-09-30T06:43:23;10.63;;;8.63;;
57947;SDS011;43754;56.992;24.292;2022-09-30T06:45:57;10.13;;;8.07;;
57947;SDS011;43754;56.992;24.292;2022-09-30T06:48:44;9.25;;;8.00;;
57947;SDS011;43754;56.992;24.292;2022-09-30T06:51:16;11.00;;;8.75;;
57947;SDS011;43754;56.992;24.292;2022-09-30T06:56:29;8.55;;;7.65;;
57947;SDS011;43754;56.992;24.292;2022-09-30T06:59:02;9.75;;;7.45;;
57947;SDS011;43754;56.992;24.292;2022-09-30T07:01:36;10.10;;;8.52;;
57947;SDS011;43754;56.992;24.292;2022-09-30T07:04:09;9.30;;;8.20;;
57947;SDS011;43754;56.992;24.292;2022-09-30T07:06:41;9.35;;;8.27;;
57947;SDS011;43754;56.992;24.292;2022-09-30T07:09:13;10.00;;;7.60;;
57947;SDS011;43754;56.992;24.292;2022-09-30T07:11:46;11.48;;;6.97;;
57947;SDS011;43754;56.992;24.292;2022-09-30T07:14:19;9.63;;;8.52;;
57947;SDS011;43754;56.992;24.292;2022-09-30T07:16:55;10.52;;;7.95;;
57947;SDS011;43754;56.992;24.292;2022-09-30T07:19:27;9.30;;;7.85;;
57947;SDS011;43754;56.992;24.292;2022-09-30T07:21:59;7.35;;;6.65;;
57947;SDS011;43754;56.992;24.292;2022-09-30T07:24:51;11.15;;;7.78;;
57947;SDS011;43754;56.992;24.292;2022-09-30T07:27:24;9.13;;;7.65;;
57947;SDS011;43754;56.992;24.292;2022-09-30T07:29:56;8.77;;;7.80;;
57947;SDS011;43754;56.992;24.292;2022-09-30T07:32:51;8.48;;;7.40;;
57947;SDS011;43754;56.992;24.292;2022-09-30T07:35:23;11.02;;;8.18;;
57947;SDS011;43754;56.992;24.292;2022-09-30T07:37:56;10.07;;;8.90;;
57947;SDS011;43754;56.992;24.292;2022-09-30T07:40:28;8.57;;;7.75;;
57947;SDS011;43754;56.992;24.292;2022-09-30T07:43:01;9.75;;;8.43;;
57947;SDS011;43754;56.992;24.292;2022-09-30T07:45:34;10.82;;;8.77;;
57947;SDS011;43754;56.992;24.292;2022-09-30T07:48:09;9.88;;;7.75;;
57947;SDS011;43754;56.992;24.292;2022-09-30T07:51:01;8.60;;;6.90;;
57947;SDS011;43754;56.992;24.292;2022-09-30T07:53:33;7.70;;;6.47;;
57947;SDS011;43754;56.992;24.292;2022-09-30T07:56:05;8.77;;;7.70;;
57947;SDS011;43754;56.992;24.292;2022-09-30T07:58:38;8.43;;;7.13;;
57947;SDS011;43754;56.992;24.292;2022-09-30T08:01:11;10.75;;;7.53;;
57947;SDS011;43754;56.992;24.292;2022-09-30T08:03:44;7.40;;;6.35;;
57947;SDS011;43754;56.992;24.292;2022-09-30T08:06:17;8.52;;;7.25;;
57947;SDS011;43754;56.992;24.292;2022-09-30T08:08:50;5.97;;;5.43;;
57947;SDS011;43754;56.992;24.292;2022-09-30T08:11:25;7.38;;;6.57;;
57947;SDS011;43754;56.992;24.292;2022-09-30T08:13:57;6.80;;;6.00;;
57947;SDS011;43754;56.992;24.292;2022-09-30T08:16:29;6.80;;;6.20;;
57947;SDS011;43754;56.992;24.292;2022-09-30T08:19:03;6.20;;;5.60;;
57947;SDS011;43754;56.992;24.292;2022-09-30T08:21:35;6.38;;;5.57;;
57947;SDS011;43754;56.992;24.292;2022-09-30T08:24:07;7.53;;;6.82;;
57947;SDS011;43754;56.992;24.292;2022-09-30T08:26:40;6.65;;;6.05;;
57947;SDS011;43754;56.992;24.292;2022-09-30T08:29:13;7.55;;;5.20;;
57947;SDS011;43754;56.992;24.292;2022-09-30T08:31:55;5.43;;;4.93;;
57947;SDS011;43754;56.992;24.292;2022-09-30T08:34:29;7.97;;;6.03;;
57947;SDS011;43754;56.992;24.292;2022-09-30T08:37:05;11.48;;;5.13;;
57947;SDS011;43754;56.992;24.292;2022-09-30T08:39:39;7.40;;;4.80;;
57947;SDS011;43754;56.992;24.292;2022-09-30T08:42:17;7.15;;;5.10;;
57947;SDS011;43754;56.992;24.292;2022-09-30T08:45:14;5.68;;;4.85;;
57947;SDS011;43754;56.992;24.292;2022-09-30T08:47:53;5.82;;;4.70;;
57947;SDS011;43754;56.992;24.292;2022-09-30T08:50:39;5.50;;;4.35;;
57947;SDS011;43754;56.992;24.292;2022-09-30T08:53:22;4.65;;;4.25;;
57947;SDS011;43754;56.992;24.292;2022-09-30T08:55:57;4.35;;;3.80;;
57947;SDS011;43754;56.992;24.292;2022-09-30T08:58:34;4.28;;;3.88;;
57947;SDS011;43754;56.992;24.292;2022-09-30T09:01:12;6.00;;;3.97;;
57947;SDS011;43754;56.992;24.292;2022-09-30T09:03:48;3.97;;;2.97;;
57947;SDS011;43754;56.992;24.292;2022-09-30T09:06:24;7.45;;;3.40;;
57947;SDS011;43754;56.992;24.292;2022-09-30T09:09:08;3.55;;;3.10;;
57947;SDS011;43754;56.992;24.292;2022-09-30T09:11:58;3.63;;;3.33;;
57947;SDS011;43754;56.992;24.292;2022-09-30T09:14:43;6.10;;;3.05;;
57947;SDS011;43754;56.992;24.292;2022-09-30T09:17:30;3.92;;;3.53;;
57947;SDS011;43754;56.992;24.292;2022-09-30T09:20:11;5.70;;;3.65;;
57947;SDS011;43754;56.992;24.292;2022-09-30T09:22:46;7.00;;;4.25;;
57947;SDS011;43754;56.992;24.292;2022-09-30T09:25:22;3.78;;;2.75;;
57947;SDS011;43754;56.992;24.292;2022-09-30T09:27:59;2.97;;;2.65;;
57947;SDS011;43754;56.992;24.292;2022-09-30T09:30:35;3.33;;;2.38;;
57947;SDS011;43754;56.992;24.292;2022-09-30T09:35:50;5.13;;;2.63;;
57947;SDS011;43754;56.992;24.292;2022-09-30T09:38:32;3.38;;;2.63;;
57947;SDS011;43754;56.992;24.292;2022-09-30T09:41:15;4.72;;;2.20;;
57947;SDS011;43754;56.992;24.292;2022-09-30T09:43:58;3.90;;;1.77;;
57947;SDS011;43754;56.992;24.292;2022-09-30T09:46:38;3.85;;;3.03;;
57947;SDS011;43754;56.992;24.292;2022-09-30T09:49:26;2.25;;;1.80;;
57947;SDS011;43754;56.992;24.292;2022-09-30T09:52:04;5.43;;;3.20;;
57947;SDS011;43754;56.992;24.292;2022-09-30T09:54:56;1.75;;;1.20;;
57947;SDS011;43754;56.992;24.292;2022-09-30T09:57:28;6.53;;;2.97;;
57947;SDS011;43754;56.992;24.292;2022-09-30T10:00:04;1.95;;;1.42;;
57947;SDS011;43754;56.992;24.292;2022-09-30T10:02:57;1.42;;;1.10;;
57947;SDS011;43754;56.992;24.292;2022-09-30T10:05:34;1.40;;;1.20;;
57947;SDS011;43754;56.992;24.292;2022-09-30T10:08:11;1.38;;;0.80;;
57947;SDS011;43754;56.992;24.292;2022-09-30T10:10:50;2.05;;;0.98;;
57947;SDS011;43754;56.992;24.292;2022-09-30T10:13:23;2.28;;;1.00;;
57947;SDS011;43754;56.992;24.292;2022-09-30T10:15:57;3.45;;;1.00;;
57947;SDS011;43754;56.992;24.292;2022-09-30T10:18:31;1.83;;;0.52;;
57947;SDS011;43754;56.992;24.292;2022-09-30T10:21:05;1.95;;;1.10;;
57947;SDS011;43754;56.992;24.292;2022-09-30T10:23:49;4.22;;;1.05;;
57947;SDS011;43754;56.992;24.292;2022-09-30T10:26:23;2.25;;;0.90;;
57947;SDS011;43754;56.992;24.292;2022-09-30T10:29:02;1.42;;;0.73;;
57947;SDS011;43754;56.992;24.292;2022-09-30T10:31:36;1.08;;;0.50;;
57947;SDS011;43754;56.992;24.292;2022-09-30T10:34:13;0.60;;;0.60;;
57947;SDS011;43754;56.992;24.292;2022-09-30T10:36:52;3.03;;;0.85;;
57947;SDS011;43754;56.992;24.292;2022-09-30T10:39:26;0.70;;;0.57;;
57947;SDS011;43754;56.992;24.292;2022-09-30T10:42:02;0.70;;;0.50;;
57947;SDS011;43754;56.992;24.292;2022-09-30T10:44:40;3.38;;;0.60;;
57947;SDS011;43754;56.992;24.292;2022-09-30T10:47:15;0.43;;;0.43;;
57947;SDS011;43754;56.992;24.292;2022-09-30T10:49:50;1.45;;;0.50;;
57947;SDS011;43754;56.992;24.292;2022-09-30T10:52:26;2.47;;;1.00;;
57947;SDS011;43754;56.992;24.292;2022-09-30T10:55:00;2.78;;;0.60;;
57947;SDS011;43754;56.992;24.292;2022-09-30T10:57:48;2.63;;;1.30;;
57947;SDS011;43754;56.992;24.292;2022-09-30T11:00:23;5.25;;;2.42;;
57947;SDS011;43754;56.992;24.292;2022-09-30T11:02:58;3.88;;;1.15;;
57947;SDS011;43754;56.992;24.292;2022-09-30T11:05:37;0.60;;;0.50;;
57947;SDS011;43754;56.992;24.292;2022-09-30T11:08:12;0.82;;;0.45;;
57947;SDS011;43754;56.992;24.292;2022-09-30T11:10:52;1.00;;;0.60;;
57947;SDS011;43754;56.992;24.292;2022-09-30T11:13:34;1.02;;;0.57;;
57947;SDS011;43754;56.992;24.292;2022-09-30T11:16:11;3.73;;;0.80;;
57947;SDS011;43754;56.992;24.292;2022-09-30T11:18:53;1.00;;;0.75;;
57947;SDS011;43754;56.992;24.292;2022-09-30T11:21:33;1.83;;;0.90;;
57947;SDS011;43754;56.992;24.292;2022-09-30T11:24:14;1.65;;;1.00;;
57947;SDS011;43754;56.992;24.292;2022-09-30T11:26:56;3.40;;;1.40;;
57947;SDS011;43754;56.992;24.292;2022-09-30T11:29:46;3.53;;;1.17;;
57947;SDS011;43754;56.992;24.292;2022-09-30T11:32:39;1.77;;;0.90;;
57947;SDS011;43754;56.992;24.292;2022-09-30T11:35:32;2.42;;;1.40;;
57947;SDS011;43754;56.992;24.292;2022-09-30T11:38:20;2.58;;;0.80;;
57947;SDS011;43754;56.992;24.292;2022-09-30T11:41:16;1.45;;;1.10;;
57947;SDS011;43754;56.992;24.292;2022-09-30T11:43:56;4.88;;;0.90;;
57947;SDS011;43754;56.992;24.292;2022-09-30T11:46:44;3.15;;;1.10;;
57947;SDS011;43754;56.992;24.292;2022-09-30T11:49:36;4.10;;;1.85;;
57947;SDS011;43754;56.992;24.292;2022-09-30T11:52:31;3.20;;;1.98;;
57947;SDS011;43754;56.992;24.292;2022-09-30T11:58:04;2.28;;;1.30;;
57947;SDS011;43754;56.992;24.292;2022-09-30T12:01:00;58.80;;;39.38;;
57947;SDS011;43754;56.992;24.292;2022-09-30T12:03:45;62.80;;;41.88;;
57947;SDS011;43754;56.992;24.292;2022-09-30T12:06:28;33.25;;;21.67;;
57947;SDS011;43754;56.992;24.292;2022-09-30T12:09:08;45.67;;;32.78;;
57947;SDS011;43754;56.992;24.292;2022-09-30T12:11:48;53.75;;;42.97;;
57947;SDS011;43754;56.992;24.292;2022-09-30T12:14:25;28.40;;;25.42;;
57947;SDS011;43754;56.992;24.292;2022-09-30T12:17:05;2.83;;;2.00;;
57947;SDS011;43754;56.992;24.292;2022-09-30T12:19:48;2.53;;;0.90;;
57947;SDS011;43754;56.992;24.292;2022-09-30T12:22:23;2.17;;;1.00;;
57947;SDS011;43754;56.992;24.292;2022-09-30T12:25:00;1.67;;;1.02;;
57947;SDS011;43754;56.992;24.292;2022-09-30T12:27:43;1.88;;;1.13;;
57947;SDS011;43754;56.992;24.292;2022-09-30T12:30:21;3.65;;;3.00;;
57947;SDS011;43754;56.992;24.292;2022-09-30T12:33:09;39.13;;;30.67;;
57947;SDS011;43754;56.992;24.292;2022-09-30T12:36:09;50.58;;;36.38;;
57947;SDS011;43754;56.992;24.292;2022-09-30T12:38:56;23.33;;;14.45;;
57947;SDS011;43754;56.992;24.292;2022-09-30T12:41:48;25.77;;;22.55;;
57947;SDS011;43754;56.992;24.292;2022-09-30T12:44:44;6.95;;;4.38;;
57947;SDS011;43754;56.992;24.292;2022-09-30T12:47:37;2.97;;;1.52;;
57947;SDS011;43754;56.992;24.292;2022-09-30T12:50:17;1.45;;;0.95;;
57947;SDS011;43754;56.992;24.292;2022-09-30T12:52:54;5.55;;;0.70;;
57947;SDS011;43754;56.992;24.292;2022-09-30T12:55:28;1.13;;;0.80;;
57947;SDS011;43754;56.992;24.292;2022-09-30T12:58:12;1.70;;;0.60;;
57947;SDS011;43754;56.992;24.292;2022-09-30T13:00:58;1.25;;;0.82;;
57947;SDS011;43754;56.992;24.292;2022-09-30T13:03:43;1.00;;;0.50;;
57947;SDS011;43754;56.992;24.292;2022-09-30T13:06:19;1.65;;;0.38;;
57947;SDS011;43754;56.992;24.292;2022-09-30T13:14:47;1.45;;;1.10;;
57947;SDS011;43754;56.992;24.292;2022-09-30T13:17:24;3.72;;;0.57;;
57947;SDS011;43754;56.992;24.292;2022-09-30T13:19:57;1.83;;;0.90;;
57947;SDS011;43754;56.992;24.292;2022-09-30T13:25:30;1.23;;;0.60;;
57947;SDS011;43754;56.992;24.292;2022-09-30T13:28:28;4.22;;;1.20;;
57947;SDS011;43754;56.992;24.292;2022-09-30T13:31:11;1.05;;;0.50;;
57947;SDS011;43754;56.992;24.292;2022-09-30T13:33:46;1.15;;;0.45;;
57947;SDS011;43754;56.992;24.292;2022-09-30T13:36:37;1.65;;;0.52;;
57947;SDS011;43754;56.992;24.292;2022-09-30T13:39:20;4.03;;;1.17;;
57947;SDS011;43754;56.992;24.292;2022-09-30T13:42:06;3.10;;;2.90;;
57947;SDS011;43754;56.992;24.292;2022-09-30T13:44:52;3.00;;;0.73;;
57947;SDS011;43754;56.992;24.292;2022-09-30T13:47:31;1.80;;;0.65;;
57947;SDS011;43754;56.992;24.292;2022-09-30T13:50:11;5.07;;;0.70;;
57947;SDS011;43754;56.992;24.292;2022-09-30T13:52:47;2.13;;;1.02;;
57947;SDS011;43754;56.992;24.292;2022-09-30T13:55:23;2.78;;;0.65;;
57947;SDS011;43754;56.992;24.292;2022-09-30T13:58:03;1.65;;;1.05;;
57947;SDS011;43754;56.992;24.292;2022-09-30T14:00:50;2.22;;;1.35;;
57947;SDS011;43754;56.992;24.292;2022-09-30T14:03:33;2.33;;;1.60;;
57947;SDS011;43754;56.992;24.292;2022-09-30T14:06:19;0.90;;;0.80;;
57947;SDS011;43754;56.992;24.292;2022-09-30T14:09:06;1.88;;;0.57;;
57947;SDS011;43754;56.992;24.292;2022-09-30T14:11:57;0.95;;;0.50;;
57947;SDS011;43754;56.992;24.292;2022-09-30T14:15:00;1.40;;;0.50;;
57947;SDS011;43754;56.992;24.292;2022-09-30T14:17:47;0.77;;;0.40;;
57947;SDS011;43754;56.992;24.292;2022-09-30T14:20:41;1.20;;;0.63;;
57947;SDS011;43754;56.992;24.292;2022-09-30T14:23:28;1.48;;;0.90;;
57947;SDS011;43754;56.992;24.292;2022-09-30T14:26:03;1.15;;;1.05;;
57947;SDS011;43754;56.992;24.292;2022-09-30T14:28:46;2.65;;;1.15;;
57947;SDS011;43754;56.992;24.292;2022-09-30T14:31:26;2.42;;;1.48;;
57947;SDS011;43754;56.992;24.292;2022-09-30T14:33:59;2.78;;;1.30;;
57947;SDS011;43754;56.992;24.292;2022-09-30T14:36:32;4.00;;;1.13;;
57947;SDS011;43754;56.992;24.292;2022-09-30T14:39:05;1.85;;;0.68;;
57947;SDS011;43754;56.992;24.292;2022-09-30T14:41:45;2.53;;;0.85;;
57947;SDS011;43754;56.992;24.292;2022-09-30T14:44:20;3.83;;;1.00;;
57947;SDS011;43754;56.992;24.292;2022-09-30T14:46:55;5.97;;;3.60;;
57947;SDS011;43754;56.992;24.292;2022-09-30T14:49:32;3.25;;;2.28;;
57947;SDS011;43754;56.992;24.292;2022-09-30T14:52:06;2.45;;;1.42;;
57947;SDS011;43754;56.992;24.292;2022-09-30T14:55:16;5.25;;;3.47;;
57947;SDS011;43754;56.992;24.292;2022-09-30T14:57:53;4.22;;;3.38;;
57947;SDS011;43754;56.992;24.292;2022-09-30T15:00:29;4.25;;;3.22;;
57947;SDS011;43754;56.992;24.292;2022-09-30T15:03:03;10.45;;;4.80;;
57947;SDS011;43754;56.992;24.292;2022-09-30T15:05:42;7.03;;;3.83;;
57947;SDS011;43754;56.992;24.292;2022-09-30T15:08:15;4.15;;;2.75;;
57947;SDS011;43754;56.992;24.292;2022-09-30T15:10:50;4.38;;;2.42;;
57947;SDS011;43754;56.992;24.292;2022-09-30T15:13:25;4.25;;;2.70;;
57947;SDS011;43754;56.992;24.292;2022-09-30T15:16:00;4.78;;;2.40;;
57947;SDS011;43754;56.992;24.292;2022-09-30T15:18:40;13.70;;;6.90;;
57947;SDS011;43754;56.992;24.292;2022-09-30T15:21:14;20.98;;;10.00;;
57947;SDS011;43754;56.992;24.292;2022-09-30T15:23:47;14.07;;;6.97;;
57947;SDS011;43754;56.992;24.292;2022-09-30T15:26:24;6.65;;;3.30;;
57947;SDS011;43754;56.992;24.292;2022-09-30T15:28:58;18.40;;;5.63;;
57947;SDS011;43754;56.992;24.292;2022-09-30T15:31:30;8.65;;;4.10;;
57947;SDS011;43754;56.992;24.292;2022-09-30T15:34:04;4.82;;;3.17;;
57947;SDS011;43754;56.992;24.292;2022-09-30T15:36:38;6.75;;;3.33;;
57947;SDS011;43754;56.992;24.292;2022-09-30T15:39:17;15.65;;;3.30;;
57947;SDS011;43754;56.992;24.292;2022-09-30T15:41:53;6.15;;;2.83;;
57947;SDS011;43754;56.992;24.292;2022-09-30T15:44:35;13.65;;;3.30;;
57947;SDS011;43754;56.992;24.292;2022-09-30T15:47:08;7.72;;;3.70;;
57947;SDS011;43754;56.992;24.292;2022-09-30T15:49:46;12.23;;;3.53;;
57947;SDS011;43754;56.992;24.292;2022-09-30T15:52:30;4.97;;;2.75;;
57947;SDS011;43754;56.992;24.292;2022-09-30T15:55:30;13.40;;;4.57;;